Misratah, Libya
Current Conditions -  °F | °C
As of 8:15 AM on Saturday 29 Nov 2014 (Local Time) from LMML Reporting Station
Clear Clear  
Wind Chill: 70°   Ceiling: Unl
Heat Index: 70°   Visibility: 6mi
Dew Point: 64°   Wind: 13mph
Humidity: 83%   Direction: 200°SSW
Pressure: 29.88"   Gusts: NA
Location:  32.38°N, 15.09°E
Report Text: LMML 290515Z 20011KT 9000 NSC 21/18 Q1012
Loading
Personal Weather Stations






























Interactive Weather Map New forecast layout! Learn more

10-Day Weather Forecast

Advertisements
Track Severe Weather on mobile